Time;durP1;ratioP1;P1;durP2;ratioP2;P2;SDS_P1;SDS_P2;PMS_P1;PMS_P2;Temp;Humidity;BMP_temperature;BMP_pressure;BME280_temperature;BME280_humidity;BME280_pressure;Samples;Min_cycle;Max_cycle;Signal;HPM_P1;HPM_P2
2023/09/08 00:00:57;;;;;;;12.23;8.67;;;19.50;99.90;;;;;;5091563;28;20406;-77
2023/09/08 00:03:23;;;;;;;11.80;8.75;;;19.70;99.90;;;;;;5108624;28;20398;-77
2023/09/08 00:05:48;;;;;;;11.75;8.38;;;19.70;99.90;;;;;;5091908;28;20454;-77
2023/09/08 00:08:15;;;;;;;12.87;8.33;;;19.60;99.90;;;;;;5091620;28;20394;-76
2023/09/08 00:10:40;;;;;;;12.85;8.43;;;19.50;99.90;;;;;;5125738;27;20451;-76
2023/09/08 00:13:06;;;;;;;12.60;8.85;;;19.50;99.90;;;;;;5091859;28;20402;-77
2023/09/08 00:15:35;;;;;;;10.80;8.50;;;19.40;99.90;;;;;;5091707;28;20844;-77
2023/09/08 00:18:01;;;;;;;10.45;8.52;;;19.40;99.90;;;;;;5125845;28;20443;-77
2023/09/08 00:20:26;;;;;;;10.07;8.57;;;19.30;99.90;;;;;;5108235;28;20390;-76
2023/09/08 00:22:52;;;;;;;11.30;8.70;;;19.40;99.90;;;;;;5091266;28;20451;-76
2023/09/08 00:25:18;;;;;;;11.00;8.67;;;19.30;99.90;;;;;;5108447;28;20413;-77
2023/09/08 00:27:44;;;;;;;13.27;9.13;;;19.40;99.90;;;;;;5091633;28;20397;-77
2023/09/08 00:30:10;;;;;;;11.45;8.93;;;19.20;99.90;;;;;;5107999;28;20413;-77
2023/09/08 00:32:36;;;;;;;12.25;9.23;;;19.50;99.90;;;;;;5091212;28;20398;-77
2023/09/08 00:35:02;;;;;;;10.55;8.65;;;19.20;99.90;;;;;;5091641;28;20426;-77
2023/09/08 00:37:27;;;;;;;11.38;8.88;;;19.10;99.90;;;;;;5107639;28;20398;-77
2023/09/08 00:39:53;;;;;;;14.00;8.93;;;19.10;99.90;;;;;;5107611;28;20758;-77
2023/09/08 00:42:19;;;;;;;13.50;8.90;;;19.30;99.90;;;;;;5090800;28;20400;-77
2023/09/08 00:44:44;;;;;;;11.80;8.88;;;19.10;99.90;;;;;;5107981;28;20456;-77
2023/09/08 00:47:10;;;;;;;10.63;8.73;;;19.20;99.90;;;;;;5090667;28;20404;-77
2023/09/08 00:49:36;;;;;;;10.97;8.83;;;18.90;99.90;;;;;;5107716;28;20413;-77
2023/09/08 00:52:01;;;;;;;10.98;9.43;;;19.00;99.90;;;;;;5107562;28;20402;-76
2023/09/08 00:54:27;;;;;;;11.75;8.95;;;18.90;99.90;;;;;;5107319;28;20425;-77
2023/09/08 00:56:57;;;;;;;11.60;8.60;;;18.60;99.90;;;;;;5107247;28;20493;-77
2023/09/08 00:59:22;;;;;;;11.80;9.07;;;18.70;99.90;;;;;;5075032;28;20908;-76
2023/09/08 01:01:48;;;;;;;13.40;9.43;;;18.70;99.90;;;;;;5077231;28;20493;-76
2023/09/08 01:04:14;;;;;;;12.18;9.35;;;18.70;99.90;;;;;;5092232;28;20405;-76
2023/09/08 01:06:40;;;;;;;10.73;9.40;;;18.80;99.90;;;;;;5093486;28;20413;-76
2023/09/08 01:09:06;;;;;;;13.38;9.63;;;18.70;99.90;;;;;;5094585;28;20394;-77
2023/09/08 01:11:32;;;;;;;12.60;9.00;;;18.60;99.90;;;;;;5112007;28;20401;-77
2023/09/08 01:13:57;;;;;;;10.77;9.65;;;18.60;99.90;;;;;;5111270;28;20429;-77
2023/09/08 01:16:23;;;;;;;14.70;9.45;;;18.50;99.90;;;;;;5111266;28;20798;-77
2023/09/08 01:18:50;;;;;;;13.20;9.77;;;18.50;99.90;;;;;;5094469;28;20393;-77
2023/09/08 01:21:21;;;;;;;13.30;9.50;;;18.60;99.90;;;;;;5111242;28;20398;-76
2023/09/08 01:23:59;;;;;;;11.57;9.52;;;18.70;99.90;;;;;;5111102;28;20402;-76
2023/09/08 01:26:29;;;;;;;12.15;9.45;;;18.60;99.90;;;;;;5093946;28;20897;-76
2023/09/08 01:28:55;;;;;;;11.63;9.95;;;18.70;99.90;;;;;;5111476;28;20394;-85
2023/09/08 01:31:21;;;;;;;12.50;9.73;;;18.60;99.90;;;;;;5095137;28;20746;-85
2023/09/08 01:33:47;;;;;;;12.68;10.05;;;18.40;99.90;;;;;;5111027;28;20425;-84
2023/09/08 01:36:14;;;;;;;14.75;9.75;;;18.50;99.90;;;;;;5094531;28;20397;-85
2023/09/08 01:38:40;;;;;;;13.48;9.88;;;18.30;99.90;;;;;;5111710;28;20885;-84
2023/09/08 01:41:05;;;;;;;12.17;9.97;;;18.10;99.90;;;;;;5111729;28;20402;-84
2023/09/08 01:43:31;;;;;;;13.48;10.00;;;18.20;99.90;;;;;;5111911;28;20410;-84
2023/09/08 01:45:57;;;;;;;11.13;9.95;;;18.40;99.90;;;;;;5128858;27;20762;-84
2023/09/08 01:48:22;;;;;;;12.33;9.80;;;18.20;99.90;;;;;;5094479;28;20394;-84
2023/09/08 01:50:48;;;;;;;12.57;10.23;;;18.20;99.90;;;;;;5096120;28;20382;-84
2023/09/08 01:53:14;;;;;;;11.40;10.25;;;18.30;99.90;;;;;;5129295;27;20492;-84
2023/09/08 01:55:41;;;;;;;13.83;10.47;;;18.10;99.90;;;;;;5127817;27;20459;-84
2023/09/08 01:58:07;;;;;;;11.93;10.20;;;18.30;99.90;;;;;;5093948;28;20779;-85
2023/09/08 02:00:33;;;;;;;14.38;9.82;;;18.10;99.90;;;;;;5094171;28;20417;-84
2023/09/08 02:02:58;;;;;;;12.32;10.23;;;18.20;99.90;;;;;;5094135;28;20414;-84
2023/09/08 02:05:26;;;;;;;12.27;9.80;;;18.20;99.90;;;;;;5111608;28;20869;-84
2023/09/08 02:07:52;;;;;;;13.43;10.65;;;20.40;99.90;;;;;;5094397;28;20492;-85
2023/09/08 02:10:18;;;;;;;12.57;9.95;;;18.10;99.90;;;;;;5128042;27;20829;-85
2023/09/08 02:12:44;;;;;;;13.15;10.63;;;18.00;99.90;;;;;;5094293;28;20404;-84
2023/09/08 02:15:11;;;;;;;12.35;10.27;;;18.00;99.90;;;;;;5093847;28;20509;-83
2023/09/08 02:17:36;;;;;;;13.18;10.45;;;18.10;99.90;;;;;;5128046;27;20398;-84
2023/09/08 02:20:03;;;;;;;11.85;10.15;;;17.80;99.90;;;;;;5094056;28;20399;-84
2023/09/08 02:22:29;;;;;;;12.57;10.43;;;17.70;99.90;;;;;;5110008;28;20492;-85
2023/09/08 02:24:56;;;;;;;11.43;10.23;;;17.90;99.90;;;;;;5091690;28;20410;-84
2023/09/08 02:27:22;;;;;;;13.95;10.75;;;17.80;99.90;;;;;;5108560;28;20405;-84
2023/09/08 02:29:48;;;;;;;13.90;10.20;;;17.80;99.90;;;;;;5111134;28;20417;-84
2023/09/08 02:32:14;;;;;;;13.60;10.33;;;17.70;99.90;;;;;;5110806;28;20488;-86
2023/09/08 02:34:42;;;;;;;14.07;10.90;;;17.60;99.90;;;;;;5094131;28;20817;-85
2023/09/08 02:37:08;;;;;;;12.03;10.13;;;17.70;99.90;;;;;;5128157;27;20405;-84
2023/09/08 02:39:34;;;;;;;12.93;10.90;;;17.90;99.90;;;;;;5113836;28;20386;-83
2023/09/08 02:42:00;;;;;;;13.32;10.55;;;17.60;99.90;;;;;;5135130;27;20416;-84
2023/09/08 02:44:26;;;;;;;13.90;10.60;;;17.80;99.90;;;;;;5127747;27;21073;-83
2023/09/08 02:46:52;;;;;;;15.15;11.27;;;18.70;99.90;;;;;;5093521;28;20402;-82
2023/09/08 02:49:18;;;;;;;14.90;11.40;;;17.70;99.90;;;;;;5092979;28;20889;-84
2023/09/08 02:51:43;;;;;;;12.80;11.23;;;17.50;99.90;;;;;;5127673;27;20490;-83
2023/09/08 02:54:09;;;;;;;13.60;11.13;;;17.60;99.90;;;;;;5093531;28;20470;-84
2023/09/08 02:56:35;;;;;;;12.40;11.10;;;17.60;99.90;;;;;;5127540;27;20475;-83
2023/09/08 02:59:01;;;;;;;14.40;10.48;;;17.60;99.90;;;;;;5093389;28;20402;-83
2023/09/08 03:01:26;;;;;;;14.32;11.43;;;17.80;99.90;;;;;;5109493;28;20425;-84
2023/09/08 03:03:52;;;;;;;13.83;11.03;;;17.40;99.90;;;;;;5127330;27;20402;-83
2023/09/08 03:06:20;;;;;;;13.03;11.03;;;17.60;99.90;;;;;;5110522;28;20412;-84
2023/09/08 03:08:45;;;;;;;14.32;11.30;;;17.60;99.90;;;;;;5111198;28;20413;-84
2023/09/08 03:11:12;;;;;;;14.55;10.93;;;17.60;99.90;;;;;;5092695;28;20781;-83
2023/09/08 03:13:38;;;;;;;14.27;11.05;;;17.50;99.90;;;;;;5109902;28;20421;-84
2023/09/08 03:16:08;;;;;;;14.35;11.57;;;17.50;99.90;;;;;;5127836;27;20760;-84
2023/09/08 03:18:36;;;;;;;13.20;11.07;;;17.40;99.90;;;;;;5127310;27;20434;-84
2023/09/08 03:21:08;;;;;;;13.75;11.43;;;17.70;99.90;;;;;;5110294;28;20410;-85
2023/09/08 03:23:36;;;;;;;14.35;11.30;;;17.50;99.90;;;;;;5094144;28;20451;-84
2023/09/08 03:26:02;;;;;;;16.25;11.70;;;17.50;99.90;;;;;;5094311;28;20715;-84
2023/09/08 03:28:27;;;;;;;14.63;11.43;;;17.60;99.90;;;;;;5093668;28;20452;-84
2023/09/08 03:30:53;;;;;;;14.50;11.60;;;17.70;99.90;;;;;;5126621;27;20406;-84
2023/09/08 03:33:19;;;;;;;14.90;11.45;;;17.50;99.90;;;;;;5093799;28;20382;-84
2023/09/08 03:35:44;;;;;;;13.80;11.10;;;17.50;99.90;;;;;;5126740;27;20405;-84
2023/09/08 03:38:10;;;;;;;13.37;11.37;;;17.50;99.90;;;;;;5109429;28;20402;-83
2023/09/08 03:40:36;;;;;;;16.33;11.27;;;17.50;99.90;;;;;;5126074;27;20394;-84
2023/09/08 03:43:02;;;;;;;13.00;11.18;;;17.50;99.90;;;;;;5092409;28;20398;-84
2023/09/08 03:45:27;;;;;;;15.25;11.50;;;17.50;99.90;;;;;;5093612;28;20414;-83
2023/09/08 03:47:53;;;;;;;13.82;11.20;;;17.30;99.90;;;;;;5109482;28;20416;-84
2023/09/08 03:50:19;;;;;;;13.60;11.60;;;17.10;99.90;;;;;;5109270;28;20471;-84
2023/09/08 03:52:45;;;;;;;14.77;11.25;;;17.70;99.90;;;;;;5131544;27;20408;-84
2023/09/08 03:55:11;;;;;;;13.52;11.02;;;17.40;99.90;;;;;;5134951;27;20429;-84
2023/09/08 03:57:36;;;;;;;16.90;11.57;;;17.40;99.90;;;;;;5107045;28;20398;-85
2023/09/08 04:00:05;;;;;;;14.60;11.60;;;17.00;99.90;;;;;;5114345;28;20408;-84
2023/09/08 04:02:30;;;;;;;13.05;11.27;;;17.20;99.90;;;;;;5112209;27;20543;-84
2023/09/08 04:04:56;;;;;;;14.82;11.55;;;17.30;99.90;;;;;;5091927;28;20435;-84
2023/09/08 04:07:22;;;;;;;13.45;11.88;;;17.40;99.90;;;;;;5126575;27;20874;-85
2023/09/08 04:09:47;;;;;;;13.20;11.10;;;17.30;99.90;;;;;;5115547;28;20472;-84
2023/09/08 04:12:13;;;;;;;16.17;11.87;;;17.40;99.90;;;;;;5127405;28;20436;-84
2023/09/08 04:14:39;;;;;;;15.77;12.07;;;17.30;99.90;;;;;;5115408;28;20426;-85
2023/09/08 04:17:05;;;;;;;15.50;11.93;;;17.00;99.90;;;;;;5112140;28;20463;-84
2023/09/08 04:19:30;;;;;;;16.07;12.13;;;17.30;99.90;;;;;;5093240;28;20405;-84
2023/09/08 04:21:56;;;;;;;13.87;11.80;;;17.30;99.90;;;;;;5110097;28;20398;-84
2023/09/08 04:24:22;;;;;;;15.60;12.00;;;17.00;99.90;;;;;;5092727;28;20406;-85
2023/09/08 04:26:47;;;;;;;14.55;11.85;;;17.00;99.90;;;;;;5109319;28;20800;-83
2023/09/08 04:29:13;;;;;;;15.90;11.60;;;17.10;99.90;;;;;;5109139;28;20410;-85
2023/09/08 04:31:38;;;;;;;13.53;12.00;;;17.10;99.90;;;;;;5075477;28;20916;-83
2023/09/08 04:34:04;;;;;;;13.32;11.93;;;17.00;99.90;;;;;;5129217;27;20453;-84
2023/09/08 04:36:30;;;;;;;13.15;11.75;;;17.20;99.90;;;;;;5113454;28;20489;-85
2023/09/08 04:38:56;;;;;;;14.38;12.40;;;17.50;99.90;;;;;;5114512;28;20401;-84
2023/09/08 04:41:22;;;;;;;15.43;12.45;;;17.10;99.90;;;;;;5097294;28;20481;-84
2023/09/08 04:43:47;;;;;;;16.30;12.73;;;17.10;99.90;;;;;;5113534;28;20406;-84
2023/09/08 04:46:13;;;;;;;14.60;12.17;;;17.00;99.90;;;;;;5114919;28;20406;-81
2023/09/08 04:48:39;;;;;;;16.60;12.77;;;17.00;99.90;;;;;;5131463;27;20437;-84
2023/09/08 04:51:05;;;;;;;16.48;12.25;;;16.90;99.90;;;;;;5112991;28;20408;-85
2023/09/08 04:53:30;;;;;;;15.97;12.77;;;16.90;99.90;;;;;;5115067;28;20412;-84
2023/09/08 04:55:56;;;;;;;14.07;12.27;;;16.90;99.90;;;;;;5115977;28;20393;-85
2023/09/08 04:58:22;;;;;;;16.00;12.30;;;17.00;99.90;;;;;;5113984;28;20932;-84
2023/09/08 05:00:47;;;;;;;15.68;12.13;;;16.80;99.90;;;;;;5096400;28;20765;-84
2023/09/08 05:03:13;;;;;;;14.60;12.17;;;16.90;99.90;;;;;;5130275;27;20410;-84
2023/09/08 05:05:39;;;;;;;15.57;11.83;;;16.80;99.90;;;;;;5130420;27;20853;-84
2023/09/08 05:08:05;;;;;;;15.73;12.25;;;17.00;99.90;;;;;;5112816;28;20409;-84
2023/09/08 05:10:30;;;;;;;15.30;12.70;;;16.60;99.90;;;;;;5112517;28;20406;-85
2023/09/08 05:12:56;;;;;;;16.17;12.63;;;17.00;99.90;;;;;;5112511;28;20397;-85
2023/09/08 05:15:22;;;;;;;14.63;12.00;;;17.00;99.90;;;;;;5112412;28;20479;-86
2023/09/08 05:17:47;;;;;;;15.07;12.50;;;17.00;99.90;;;;;;5112652;28;20753;-85
2023/09/08 05:20:13;;;;;;;15.40;12.70;;;16.80;99.90;;;;;;5112533;28;20466;-85
2023/09/08 05:22:39;;;;;;;15.00;11.85;;;16.60;99.90;;;;;;5095705;28;20795;-85
2023/09/08 05:25:08;;;;;;;14.05;12.30;;;16.80;99.90;;;;;;5113410;28;20398;-85
2023/09/08 05:27:34;;;;;;;16.58;11.95;;;17.10;99.90;;;;;;5112505;28;20413;-85
2023/09/08 05:29:59;;;;;;;14.75;12.05;;;16.70;99.90;;;;;;5112237;28;20405;-85
2023/09/08 05:32:25;;;;;;;14.80;12.27;;;17.30;99.90;;;;;;5112662;28;20406;-85
2023/09/08 05:34:51;;;;;;;14.00;11.93;;;17.20;99.90;;;;;;5095395;28;21016;-85
2023/09/08 05:37:16;;;;;;;15.02;11.57;;;17.10;99.90;;;;;;5129061;27;20906;-84
2023/09/08 05:39:42;;;;;;;18.33;12.45;;;17.00;99.90;;;;;;5095787;28;20402;-85
2023/09/08 05:42:08;;;;;;;17.27;12.00;;;17.20;99.90;;;;;;5095041;28;20394;-83
2023/09/08 05:44:33;;;;;;;17.37;12.30;;;17.10;99.90;;;;;;5139898;27;20460;-85
2023/09/08 05:46:59;;;;;;;16.50;11.60;;;17.10;99.90;;;;;;5130087;27;20761;-85
2023/09/08 05:49:25;;;;;;;14.98;11.73;;;17.30;99.90;;;;;;5077792;28;20390;-85
2023/09/08 05:51:50;;;;;;;15.37;11.57;;;17.40;99.90;;;;;;5111527;28;20402;-84
2023/09/08 05:54:16;;;;;;;13.17;11.30;;;17.50;99.90;;;;;;5111867;28;20425;-84
2023/09/08 05:56:42;;;;;;;16.30;11.38;;;17.40;99.90;;;;;;5111941;28;20797;-86
2023/09/08 05:59:08;;;;;;;16.45;11.00;;;17.70;99.90;;;;;;5128679;27;20731;-85
2023/09/08 06:01:34;;;;;;;14.57;11.23;;;17.50;99.90;;;;;;5111282;28;20398;-84
2023/09/08 06:04:00;;;;;;;15.50;10.75;;;18.00;99.90;;;;;;5110534;28;20402;-85
2023/09/08 06:06:26;;;;;;;12.90;11.13;;;17.90;99.90;;;;;;5111430;28;20502;-85
2023/09/08 06:08:51;;;;;;;12.68;10.85;;;17.90;99.90;;;;;;5128573;27;20885;-85
2023/09/08 06:11:17;;;;;;;15.52;10.90;;;17.80;99.90;;;;;;5111233;28;20401;-85
2023/09/08 06:13:43;;;;;;;12.73;10.60;;;18.50;99.90;;;;;;5111639;28;20525;-83
2023/09/08 06:16:09;;;;;;;13.47;10.73;;;18.10;99.90;;;;;;5111853;28;20742;-85
2023/09/08 06:18:39;;;;;;;16.08;11.32;;;18.30;99.90;;;;;;5128764;27;20402;-85
2023/09/08 06:21:08;;;;;;;11.88;10.23;;;18.20;99.90;;;;;;5111985;28;20410;-85
2023/09/08 06:23:35;;;;;;;12.63;10.10;;;18.40;99.90;;;;;;5111308;28;20885;-85
2023/09/08 06:26:01;;;;;;;14.20;10.50;;;18.70;99.90;;;;;;5128497;27;20398;-84
2023/09/08 06:28:28;;;;;;;12.05;10.00;;;18.90;99.90;;;;;;5110857;28;20398;-85
2023/09/08 06:30:54;;;;;;;11.38;10.00;;;18.60;99.90;;;;;;5128255;27;20430;-84
2023/09/08 06:33:20;;;;;;;11.25;10.05;;;18.70;99.90;;;;;;5111234;28;20398;-83
2023/09/08 06:35:47;;;;;;;21.10;10.82;;;18.90;99.90;;;;;;5110950;28;20471;-84
2023/09/08 06:38:12;;;;;;;15.40;10.55;;;19.10;99.90;;;;;;5110798;28;20894;-84
2023/09/08 06:40:38;;;;;;;12.50;9.85;;;19.00;99.90;;;;;;5094039;28;20455;-84
2023/09/08 06:43:04;;;;;;;11.50;9.00;;;19.60;99.90;;;;;;5111198;28;20397;-85
2023/09/08 06:45:30;;;;;;;11.80;9.35;;;19.50;99.90;;;;;;5110605;28;20406;-85
2023/09/08 06:47:56;;;;;;;12.07;9.17;;;19.70;99.90;;;;;;5093700;28;20401;-85
2023/09/08 06:50:22;;;;;;;15.73;9.80;;;20.10;99.90;;;;;;5093171;28;20815;-83
2023/09/08 06:52:51;;;;;;;15.95;9.23;;;20.10;99.90;;;;;;5110422;28;20493;-85
2023/09/08 06:55:17;;;;;;;12.43;9.20;;;20.30;99.90;;;;;;5109843;28;20426;-84
2023/09/08 06:57:44;;;;;;;12.30;9.20;;;20.40;99.90;;;;;;5092626;28;20398;-86
2023/09/08 07:00:13;;;;;;;12.67;9.60;;;21.00;99.90;;;;;;5093812;28;20795;-85
2023/09/08 07:02:40;;;;;;;16.70;9.52;;;20.60;99.90;;;;;;5127151;27;20410;-85
2023/09/08 07:05:07;;;;;;;12.57;9.70;;;22.40;99.90;;;;;;5127822;27;20410;-85
2023/09/08 07:07:37;;;;;;;13.23;9.80;;;20.80;99.90;;;;;;5076697;28;20398;-85
2023/09/08 07:10:03;;;;;;;12.82;9.65;;;20.70;99.90;;;;;;5093598;28;20402;-83
2023/09/08 07:12:29;;;;;;;13.23;9.02;;;21.00;99.90;;;;;;5093736;28;20398;-85
2023/09/08 07:14:56;;;;;;;12.30;9.60;;;20.80;99.90;;;;;;5110657;28;20425;-85
2023/09/08 07:17:23;;;;;;;11.70;9.50;;;21.20;99.90;;;;;;5113285;28;20398;-84
2023/09/08 07:19:49;;;;;;;11.88;9.27;;;21.60;99.90;;;;;;5119125;28;20459;-84
2023/09/08 07:22:15;;;;;;;13.10;9.70;;;21.20;99.90;;;;;;5129669;27;20692;-84
2023/09/08 07:24:41;;;;;;;13.98;9.57;;;21.80;99.90;;;;;;5112130;28;20417;-83
2023/09/08 07:27:07;;;;;;;14.10;9.60;;;21.60;99.90;;;;;;5092790;28;20920;-84
2023/09/08 07:29:33;;;;;;;13.43;9.13;;;21.70;99.90;;;;;;5101876;28;20444;-85
2023/09/08 07:31:59;;;;;;;14.97;9.33;;;21.60;99.90;;;;;;5089186;28;20419;-82
2023/09/08 07:34:25;;;;;;;16.63;8.77;;;21.80;99.90;;;;;;5085206;28;20428;-83
2023/09/08 07:36:51;;;;;;;14.13;8.98;;;22.20;99.90;;;;;;5131603;27;20472;-84
2023/09/08 07:39:16;;;;;;;14.95;9.50;;;22.50;99.90;;;;;;5145111;27;20469;-83
2023/09/08 07:41:42;;;;;;;13.67;9.43;;;22.50;99.90;;;;;;5098735;28;20423;-85
2023/09/08 07:44:08;;;;;;;12.60;9.00;;;22.70;99.90;;;;;;5111974;28;20520;-84
2023/09/08 07:46:34;;;;;;;12.32;8.38;;;22.40;99.90;;;;;;5094734;28;20416;-84
2023/09/08 07:49:00;;;;;;;10.00;8.40;;;22.80;99.90;;;;;;5089113;28;20980;-82
2023/09/08 07:51:26;;;;;;;11.63;8.50;;;23.00;99.90;;;;;;5101866;28;20445;-82
2023/09/08 07:53:53;;;;;;;11.80;8.50;;;22.60;99.90;;;;;;5114620;27;20952;-89
2023/09/08 07:56:19;;;;;;;11.80;8.68;;;23.10;99.90;;;;;;5112873;28;20510;-84
2023/09/08 07:58:45;;;;;;;9.73;8.70;;;23.00;99.90;;;;;;5123002;27;20381;-83
2023/09/08 08:01:12;;;;;;;11.33;8.07;;;23.50;99.90;;;;;;5102501;28;20776;-84
2023/09/08 08:03:38;;;;;;;12.55;7.63;;;23.60;99.90;;;;;;5088225;28;20422;-84
2023/09/08 08:06:04;;;;;;;13.20;8.00;;;23.50;99.90;;;;;;5102438;28;20444;-84
2023/09/08 08:08:30;;;;;;;10.82;7.45;;;23.60;99.90;;;;;;5114659;27;20471;-85
2023/09/08 08:10:56;;;;;;;9.05;7.65;;;23.90;99.90;;;;;;5109933;27;20460;-86
2023/09/08 08:13:22;;;;;;;16.33;7.87;;;24.30;99.90;;;;;;5086950;28;20844;-85
2023/09/08 08:15:47;;;;;;;12.88;7.40;;;24.10;99.90;;;;;;5101231;28;20445;-85
2023/09/08 08:18:13;;;;;;;9.50;7.23;;;24.20;99.90;;;;;;5072231;28;20410;-83
2023/09/08 08:20:39;;;;;;;13.90;7.83;;;24.30;99.90;;;;;;5102489;28;20443;-85
2023/09/08 08:23:06;;;;;;;9.82;7.60;;;24.30;99.90;;;;;;5103351;28;20417;-83
2023/09/08 08:25:32;;;;;;;10.70;7.60;;;22.50;99.90;;;;;;5113024;28;20438;-85
2023/09/08 08:28:00;;;;;;;9.82;7.40;;;25.20;99.90;;;;;;5118029;28;20419;-86
2023/09/08 08:30:26;;;;;;;14.02;7.45;;;25.00;99.90;;;;;;5102002;28;20518;-82
2023/09/08 08:32:53;;;;;;;12.25;7.68;;;25.00;99.90;;;;;;5082485;28;20547;-81
2023/09/08 08:35:19;;;;;;;10.00;7.18;;;25.10;99.90;;;;;;5082923;28;20409;-84
2023/09/08 08:37:45;;;;;;;12.15;7.78;;;25.20;99.90;;;;;;5082319;28;20449;-83
2023/09/08 08:40:14;;;;;;;9.30;7.30;;;24.90;99.90;;;;;;5061824;28;20464;-83
2023/09/08 08:42:42;;;;;;;9.30;7.20;;;25.10;99.90;;;;;;5100840;28;20484;-81
2023/09/08 08:45:08;;;;;;;9.57;7.13;;;25.10;99.90;;;;;;5098225;28;20439;-85
2023/09/08 08:47:33;;;;;;;9.90;7.20;;;25.00;99.90;;;;;;5075945;28;20418;-82
2023/09/08 08:50:00;;;;;;;9.00;6.90;;;25.40;99.90;;;;;;5091388;28;20773;-84
2023/09/08 08:52:27;;;;;;;11.48;6.95;;;25.30;99.90;;;;;;5084090;28;20418;-83
2023/09/08 08:54:54;;;;;;;10.07;7.07;;;25.50;99.90;;;;;;5101264;28;20452;-81
2023/09/08 08:57:21;;;;;;;8.45;6.95;;;25.70;99.90;;;;;;5139632;27;20416;-81
2023/09/08 08:59:49;;;;;;;10.13;7.18;;;25.90;99.90;;;;;;5080779;28;20418;-80
2023/09/08 09:02:15;;;;;;;8.98;6.80;;;25.80;99.90;;;;;;5103705;28;20425;-77
2023/09/08 09:04:41;;;;;;;8.10;6.88;;;25.90;99.90;;;;;;5101125;28;20428;-83
2023/09/08 09:07:07;;;;;;;9.98;6.38;;;25.90;99.90;;;;;;5106071;28;20412;-84
2023/09/08 09:09:36;;;;;;;7.93;6.55;;;26.10;99.90;;;;;;5100003;28;20416;-86
2023/09/08 09:12:03;;;;;;;9.63;6.60;;;26.00;99.90;;;;;;5117896;28;20491;-86
2023/09/08 09:14:33;;;;;;;13.48;6.50;;;25.70;99.90;;;;;;5079626;28;20482;-86
2023/09/08 09:16:59;;;;;;;10.15;6.72;;;26.20;99.90;;;;;;5075840;28;20917;-84
2023/09/08 09:19:27;;;;;;;8.25;5.97;;;26.00;99.90;;;;;;5094662;28;20530;-84
2023/09/08 09:21:54;;;;;;;12.60;6.32;;;26.30;99.90;;;;;;5114096;27;20436;-85
2023/09/08 09:24:43;;;;;;;11.80;6.00;;;26.30;99.90;;;;;;5092406;28;20441;-80
2023/09/08 09:27:10;;;;;;;7.95;5.70;;;26.50;99.90;;;;;;5089563;28;20423;-83
2023/09/08 09:29:49;;;;;;;10.07;5.97;;;26.40;99.90;;;;;;5082005;28;20840;-79
2023/09/08 09:32:22;;;;;;;9.63;5.57;;;27.10;99.90;;;;;;5104488;28;20418;-80
2023/09/08 09:34:50;;;;;;;8.73;6.00;;;27.40;99.90;;;;;;5140410;27;20788;-79
2023/09/08 09:37:16;;;;;;;8.23;5.60;;;27.60;99.90;;;;;;5106046;28;20424;-77
2023/09/08 09:39:42;;;;;;;7.07;5.82;;;27.30;99.90;;;;;;5096070;28;20426;-77
2023/09/08 09:42:07;;;;;;;8.37;5.60;;;27.10;99.90;;;;;;5108669;28;20423;-77
2023/09/08 09:44:33;;;;;;;9.48;5.55;;;27.00;99.90;;;;;;5109845;28;20426;-77
2023/09/08 09:47:00;;;;;;;8.85;5.75;;;27.30;99.90;;;;;;5093038;28;20424;-78
2023/09/08 09:49:31;;;;;;;10.27;6.00;;;27.00;99.90;;;;;;5127128;27;20414;-78
2023/09/08 09:51:58;;;;;;;7.53;5.70;;;27.40;99.90;;;;;;5088974;28;21011;-80
2023/09/08 09:54:24;;;;;;;8.70;6.68;;;26.50;99.90;;;;;;5107289;28;20492;-81
2023/09/08 09:56:54;;;;;;;9.63;6.18;;;27.80;99.90;;;;;;5083144;28;20836;-80
2023/09/08 09:59:21;;;;;;;10.65;6.03;;;27.70;99.90;;;;;;5075982;28;20504;-78
2023/09/08 10:01:47;;;;;;;7.82;5.40;;;27.40;99.90;;;;;;5120561;27;20421;-78
2023/09/08 10:04:15;;;;;;;8.53;5.37;;;28.00;99.90;;;;;;5091340;28;20534;-78
2023/09/08 10:06:42;;;;;;;9.57;5.32;;;28.30;99.90;;;;;;5105578;28;20764;-79
2023/09/08 10:09:15;;;;;;;10.95;5.70;;;28.50;99.90;;;;;;5106434;28;20417;-80
2023/09/08 10:11:52;;;;;;;9.65;5.40;;;28.20;99.90;;;;;;5067756;28;20451;-80
2023/09/08 10:14:18;;;;;;;9.32;5.35;;;27.90;99.90;;;;;;5094522;28;20911;-82
2023/09/08 10:16:49;;;;;;;8.68;5.60;;;28.10;99.90;;;;;;5108875;28;20469;-82
2023/09/08 10:19:16;;;;;;;9.93;4.97;;;28.20;99.90;;;;;;5087046;28;20420;-81
2023/09/08 10:21:48;;;;;;;9.95;5.75;;;28.40;99.90;;;;;;5114434;27;20469;-83
2023/09/08 10:24:34;;;;;;;10.40;5.65;;;28.60;99.90;;;;;;5091263;28;20424;-82
2023/09/08 10:27:11;;;;;;;10.25;5.65;;;28.70;99.90;;;;;;5096310;28;20452;-82
2023/09/08 10:29:38;;;;;;;7.97;5.60;;;28.90;99.90;;;;;;5115570;27;20929;-82
2023/09/08 10:32:05;;;;;;;8.35;5.50;;;28.80;99.90;;;;;;5087690;28;20912;-82
2023/09/08 10:34:33;;;;;;;9.70;5.88;;;29.20;99.90;;;;;;5105445;28;21456;-83
2023/09/08 10:36:59;;;;;;;9.43;5.38;;;28.90;99.90;;;;;;5134911;27;20427;-83
2023/09/08 10:39:32;;;;;;;8.60;5.63;;;29.20;99.90;;;;;;5099123;28;20781;-82
2023/09/08 10:42:16;;;;;;;10.05;5.70;;;29.20;99.90;;;;;;5101975;28;20466;-83
2023/09/08 10:45:13;;;;;;;8.88;5.38;;;29.50;99.90;;;;;;5088630;28;20419;-83
2023/09/08 10:47:45;;;;;;;10.52;5.55;;;29.20;99.90;;;;;;5136678;27;20527;-83
2023/09/08 10:50:18;;;;;;;7.53;5.63;;;29.70;99.90;;;;;;5092483;28;20408;-83
2023/09/08 10:52:45;;;;;;;8.07;5.10;;;29.60;99.90;;;;;;5096915;27;20417;-84
2023/09/08 10:55:15;;;;;;;7.38;5.18;;;30.20;99.90;;;;;;5074476;28;20421;-84
2023/09/08 10:57:45;;;;;;;7.72;5.95;;;30.20;99.90;;;;;;5118036;27;20408;-83
2023/09/08 11:00:17;;;;;;;7.40;5.78;;;29.80;99.90;;;;;;5072569;28;20492;-83
2023/09/08 11:02:54;;;;;;;7.93;5.43;;;29.80;99.90;;;;;;5095828;28;20426;-83
2023/09/08 11:05:21;;;;;;;8.38;5.30;;;29.90;99.90;;;;;;5068142;28;20413;-83
2023/09/08 11:07:49;;;;;;;8.47;5.23;;;29.90;99.90;;;;;;5100391;28;20511;-84
2023/09/08 11:10:15;;;;;;;8.10;5.07;;;30.10;99.90;;;;;;5107147;28;20829;-83
2023/09/08 11:12:41;;;;;;;7.15;5.40;;;30.40;99.90;;;;;;5103436;28;20433;-84
2023/09/08 11:15:08;;;;;;;9.23;5.37;;;30.30;99.90;;;;;;5089272;28;20495;-84
2023/09/08 11:17:41;;;;;;;8.15;5.20;;;30.10;99.90;;;;;;5131764;27;20400;-82
2023/09/08 11:20:09;;;;;;;7.05;5.60;;;30.30;99.90;;;;;;5094831;28;20444;-83
2023/09/08 11:22:37;;;;;;;8.85;5.50;;;30.20;99.90;;;;;;5132589;27;20492;-82
2023/09/08 11:25:05;;;;;;;7.28;5.20;;;30.50;99.90;;;;;;5105696;28;20453;-80
2023/09/08 11:27:32;;;;;;;8.70;5.72;;;30.70;99.90;;;;;;5100302;28;20420;-83
2023/09/08 11:29:58;;;;;;;7.68;5.50;;;31.00;99.90;;;;;;5099297;28;20914;-86
2023/09/08 11:32:25;;;;;;;7.20;4.60;;;30.90;99.90;;;;;;5095544;28;20420;-84
2023/09/08 11:34:50;;;;;;;8.30;5.30;;;31.30;99.90;;;;;;5122721;27;20424;-80
2023/09/08 11:37:20;;;;;;;7.50;5.28;;;31.20;99.80;;;;;;5098009;28;20404;-81
2023/09/08 11:39:46;;;;;;;8.38;5.18;;;31.10;99.80;;;;;;5114452;28;20424;-84
2023/09/08 11:42:14;;;;;;;7.35;4.90;;;31.30;99.60;;;;;;5094728;28;20406;-83
2023/09/08 11:44:40;;;;;;;7.40;5.38;;;31.50;99.40;;;;;;5127642;28;20542;-82
2023/09/08 11:47:10;;;;;;;7.18;5.28;;;30.70;99.10;;;;;;5102000;28;20417;-84
2023/09/08 11:49:40;;;;;;;10.43;5.00;;;31.10;99.50;;;;;;5110478;27;20418;-86
2023/09/08 11:52:07;;;;;;;11.27;5.50;;;31.60;99.30;;;;;;5082091;28;20574;-81
2023/09/08 11:54:34;;;;;;;7.13;5.10;;;31.80;98.30;;;;;;5108429;28;20428;-83
2023/09/08 11:57:02;;;;;;;6.47;5.10;;;31.50;98.80;;;;;;5079284;28;20412;-85
2023/09/08 11:59:31;;;;;;;8.10;5.13;;;31.30;98.50;;;;;;5083209;28;20467;-86
2023/09/08 12:01:57;;;;;;;8.55;5.00;;;31.20;98.70;;;;;;5114928;28;20412;-87
2023/09/08 12:04:23;;;;;;;6.47;4.85;;;31.70;98.20;;;;;;5104347;28;20505;-82
2023/09/08 12:06:49;;;;;;;9.47;4.67;;;32.30;97.50;;;;;;5088446;28;20510;-84
2023/09/08 12:09:16;;;;;;;7.93;4.30;;;32.50;97.10;;;;;;5103348;28;20423;-84
2023/09/08 12:11:42;;;;;;;6.63;4.60;;;32.70;97.10;;;;;;5109954;28;20988;-83
2023/09/08 12:14:13;;;;;;;7.57;4.90;;;32.60;96.20;;;;;;5077259;28;20420;-84
2023/09/08 12:16:40;;;;;;;8.75;4.13;;;32.80;95.40;;;;;;5093697;28;22092;-84
2023/09/08 12:19:06;;;;;;;6.15;4.18;;;32.80;94.90;;;;;;5070004;28;20444;-84
2023/09/08 12:21:35;;;;;;;6.28;3.95;;;32.30;95.00;;;;;;5105470;28;20472;-84
2023/09/08 12:24:01;;;;;;;5.78;4.07;;;32.20;94.40;;;;;;5106992;28;20497;-85
2023/09/08 12:26:27;;;;;;;5.70;4.30;;;31.80;95.10;;;;;;5092744;28;20408;-84
2023/09/08 12:28:53;;;;;;;6.05;4.20;;;31.70;94.80;;;;;;5088770;28;20417;-83
2023/09/08 12:31:19;;;;;;;8.43;4.20;;;31.80;94.90;;;;;;5083746;28;20409;-82
2023/09/08 12:33:46;;;;;;;5.90;4.28;;;32.00;94.90;;;;;;5080624;28;20415;-83